• Join FlightAware (Why Join?)
  • Login
  • US Flag 
03:57PM EST


 

Airport Tracker/Info


-or-


 

Live Flight TrackerFlight Track Log ✈ N373LD ✈ 31-Mar-2014 ✈ KCOD - KMLS

Flight Track Log - Related Links

Times and Time Zones

All times are in EDT time to prevent confusion due to time zone crossing. See the N373LD flight status page for this flight to view local times or setup timezone preferences in your user account.

Time Position Orientation Groundspeed Altitude Reporting Facility
EDT Latitude Longitude Course Direction KTS MPH feet Rate Location/Type
02:13PM 44.5425 -109.0014 48° Northeast 137 158 6,300  Level Salt Lake Center
02:14PM 44.5817 -108.9839 18° North 144 166 7,900 1,500 Climbing Salt Lake Center
02:15PM 44.6222 -108.9672 16° North 145 167 9,400 1,620 Climbing Salt Lake Center
02:16PM 44.7562 -108.6399 50° Northeast  Level FlightAware Approximate
02:16PM 44.6578 -108.9058 51° Northeast 161 185 11,300  Level Salt Lake Center
02:17PM 44.7948 -108.5753 50° Northeast  Level FlightAware Approximate
02:17PM 44.6892 -108.8556 49° Northeast 167 192 12,800  Level Salt Lake Center
02:18PM 44.8397 -108.5206 55° Northeast  Level FlightAware Approximate
02:18PM 44.7206 -108.8042 49° Northeast 168 193 14,300  Level Salt Lake Center
02:19PM 44.8755 -108.4530 48° Northeast  Level FlightAware Approximate
02:20PM 44.7539 -108.7514 48° Northeast 174 200 15,800  Level Salt Lake Center
02:21PM 44.7875 -108.6953 50° Northeast 183 211 17,400 1,320 Climbing Salt Lake Center
02:22PM 44.8225 -108.6386 49° Northeast 185 213 18,600 1,260 Climbing Salt Lake Center
02:23PM 44.8572 -108.5808 50° Northeast 190 219 20,000 1,080 Climbing Salt Lake Center
02:24PM 44.9028 -108.5069 49° Northeast 204 235 20,900 480 Climbing Salt Lake Center
02:25PM 44.9469 -108.4350 49° Northeast 231 266 21,000  Climbing Salt Lake Center
02:26PM 44.9939 -108.3558 50° Northeast 253 291 21,000  Level Salt Lake Center
02:27PM 45.0417 -108.2772 49° Northeast 257 296 21,000  Level Salt Lake Center
02:28PM 45.0886 -108.1992 50° Northeast 258 297 21,000  Level Salt Lake Center
02:29PM 45.1344 -108.1197 51° Northeast 258 297 21,000  Level Salt Lake Center
02:30PM 45.1792 -108.0381 52° Northeast 259 298 21,000  Level Salt Lake Center
02:31PM 45.2208 -107.9525 55° Northeast 260 299 21,000  Level Salt Lake Center
02:32PM 45.2706 -107.8514 55° Northeast 260 299 21,000  Level Salt Lake Center
02:33PM 45.3128 -107.7664 55° Northeast 260 299 21,000  Level Salt Lake Center
02:34PM 45.3542 -107.6811 55° Northeast 262 302 21,000  Level Salt Lake Center
02:35PM 45.3961 -107.5936 56° Northeast 265 305 21,000  Level Salt Lake Center
02:36PM 45.4383 -107.5078 55° Northeast 265 305 21,000  Level Salt Lake Center
02:37PM 45.4803 -107.4219 55° Northeast 265 305 21,000  Level Salt Lake Center
02:38PM 45.5217 -107.3383 55° Northeast 263 303 21,000  Level Salt Lake Center
02:39PM 45.5711 -107.2369 55° Northeast 260 299 21,000  Level Salt Lake Center
02:40PM 45.6122 -107.1503 56° Northeast 261 300 21,000  Level Salt Lake Center
02:41PM 45.6536 -107.0625 56° Northeast 264 304 21,000  Level Salt Lake Center
02:42PM 45.6936 -106.9764 56° Northeast 264 304 21,000  Level Salt Lake Center
02:43PM 45.7347 -106.8908 55° Northeast 264 304 21,000  Level Salt Lake Center
02:44PM 45.7767 -106.8044 55° Northeast 264 304 21,000  Level Salt Lake Center
02:45PM 45.8172 -106.7175 56° Northeast 264 304 21,000  Level Salt Lake Center
02:46PM 45.8664 -106.6150 55° Northeast 264 304 21,000  Level Salt Lake Center
02:47PM 45.9067 -106.5297 56° Northeast 263 303 21,000  Level Salt Lake Center
02:48PM 45.9469 -106.4422 56° Northeast 263 303 21,000  Level Salt Lake Center
02:49PM 45.9875 -106.3558 56° Northeast 263 303 21,000 -600 Level Salt Lake Center
02:50PM 46.0269 -106.2692 57° Northeast 263 303 19,800 -1,440 Descending Salt Lake Center
02:51PM 46.0661 -106.1856 56° Northeast 259 298 18,100 -1,560 Descending Salt Lake Center
02:52PM 46.1025 -106.1056 57° Northeast 250 288 16,700 -1,740 Descending Salt Lake Center
02:53PM 46.1475 -106.0136 55° Northeast 242 278 14,600 -2,040 Descending Salt Lake Center
02:55PM 46.2033 -106.0275 350° North 226 260 12,600 -2,040 Descending Salt Lake Center
02:56PM 46.2542 -106.0731 328° Northwest 218 251 10,500 -2,100 Descending Salt Lake Center
02:57PM 46.3022 -106.0972 341° North 209 241 8,400 -1,260 Descending Salt Lake Center
02:58PM 46.3489 -106.0636 26° Northeast 207 238 7,900 -540 Descending Salt Lake Center